createdAt,value
2022-11-28T00:00:01.564Z,7.4
2022-11-28T00:01:01.162Z,7.4
2022-11-28T00:02:01.745Z,7.3
2022-11-28T00:03:01.458Z,7.4
2022-11-28T00:04:01.948Z,7.3
2022-11-28T00:05:01.721Z,7.3
2022-11-28T00:06:01.208Z,7.3
2022-11-28T00:07:01.782Z,7.3
2022-11-28T00:08:01.482Z,7.2
2022-11-28T00:09:01.986Z,7.3
2022-11-28T00:10:01.569Z,7.2
2022-11-28T00:11:01.151Z,7.2
2022-11-28T00:12:01.743Z,7.2
2022-11-28T00:13:01.327Z,7.2
2022-11-28T00:14:01.910Z,7.2
2022-11-28T00:15:01.492Z,7.2
2022-11-28T00:16:01.144Z,7.2
2022-11-28T00:17:01.678Z,7.2
2022-11-28T00:18:01.261Z,7.1
2022-11-28T00:19:01.837Z,7.2
2022-11-28T00:20:01.497Z,7.1
2022-11-28T00:21:01.186Z,7.1
2022-11-28T00:22:01.669Z,7.2
2022-11-28T00:23:01.252Z,7.1
2022-11-28T00:24:01.845Z,7.2
2022-11-28T00:25:01.438Z,7.1
2022-11-28T00:26:02.019Z,7.1
2022-11-28T00:27:01.620Z,7.2
2022-11-28T00:28:01.207Z,7.1
2022-11-28T00:29:01.776Z,7.1
2022-11-28T00:30:01.360Z,7.1
2022-11-28T00:31:01.935Z,7.2
2022-11-28T00:32:01.572Z,7.1
2022-11-28T00:33:01.107Z,7.2
2022-11-28T00:34:01.681Z,7.2
2022-11-28T00:35:01.287Z,7.2
2022-11-28T00:36:01.872Z,7.2
2022-11-28T00:37:01.593Z,7.2
2022-11-28T00:38:02.029Z,7.2
2022-11-28T00:39:01.613Z,7.3
2022-11-28T00:40:01.218Z,7.2
2022-11-28T00:41:01.782Z,7.2
2022-11-28T00:42:01.390Z,7.2
2022-11-28T00:43:01.939Z,7.1
2022-11-28T00:44:01.524Z,7.2
2022-11-28T00:45:01.120Z,7.2
2022-11-28T00:46:01.686Z,7.2
2022-11-28T00:47:01.318Z,7.2
2022-11-28T00:48:01.901Z,7.3
2022-11-28T00:49:01.485Z,7.3
2022-11-28T00:50:02.084Z,7.3
2022-11-28T00:51:01.669Z,7.3
2022-11-28T00:52:01.254Z,7.3
2022-11-28T00:53:01.956Z,7.3
2022-11-28T00:54:01.495Z,7.3
2022-11-28T00:55:02.083Z,7.3
2022-11-28T00:56:01.670Z,7.3
2022-11-28T00:57:01.254Z,7.3
2022-11-28T00:58:01.836Z,7.2
2022-11-28T00:59:01.509Z,7.3
2022-11-28T01:00:01.070Z,7.2
2022-11-28T01:01:01.750Z,7.3
2022-11-28T01:02:01.369Z,7.2
2022-11-28T01:03:01.887Z,7.3
2022-11-28T01:04:01.498Z,7.2
2022-11-28T01:05:02.062Z,7.3
2022-11-28T01:06:01.648Z,7.3
2022-11-28T01:07:01.233Z,7.3
2022-11-28T01:08:01.807Z,7.3
2022-11-28T01:09:01.560Z,7.3
2022-11-28T01:10:01.984Z,7.2
2022-11-28T01:11:01.564Z,7.3
2022-11-28T01:12:01.164Z,7.2
2022-11-28T01:13:01.738Z,7.2
2022-11-28T01:14:01.331Z,7.1
2022-11-28T01:15:01.914Z,7.1
2022-11-28T01:16:01.552Z,7.1
2022-11-28T01:17:01.083Z,7.1
2022-11-28T01:18:01.657Z,7.1
2022-11-28T01:19:01.241Z,7.1
2022-11-28T01:20:01.848Z,7.1
2022-11-28T01:21:01.431Z,7.1
2022-11-28T01:22:02.021Z,7.1
2022-11-28T01:23:01.612Z,7.1
2022-11-28T01:24:01.194Z,7
2022-11-28T01:25:01.928Z,7.1
2022-11-28T01:26:01.426Z,7.1
2022-11-28T01:27:02.013Z,7.1
2022-11-28T01:28:01.598Z,7.1
2022-11-28T01:29:01.184Z,7.1
2022-11-28T01:30:01.789Z,7.1
2022-11-28T01:31:01.406Z,7
2022-11-28T01:32:02.011Z,7.1
2022-11-28T01:33:01.591Z,7.1
2022-11-28T01:34:01.168Z,7
2022-11-28T01:35:01.769Z,7
2022-11-28T01:36:01.372Z,7
2022-11-28T01:37:01.955Z,7
2022-11-28T01:38:01.536Z,7
2022-11-28T01:39:01.108Z,7
2022-11-28T01:40:01.692Z,7
2022-11-28T01:41:01.420Z,7
2022-11-28T01:42:01.863Z,7.1
2022-11-28T01:43:01.446Z,7
2022-11-28T01:44:02.027Z,7.1
2022-11-28T01:45:01.620Z,7.1
2022-11-28T01:46:01.228Z,7
2022-11-28T01:47:01.807Z,7
2022-11-28T01:48:01.420Z,7
2022-11-28T01:49:01.989Z,7
2022-11-28T01:50:01.573Z,7
2022-11-28T01:51:01.179Z,7
2022-11-28T01:52:01.769Z,7
2022-11-28T01:53:01.350Z,7
2022-11-28T01:54:01.926Z,7
2022-11-28T01:55:01.514Z,6.9
2022-11-28T01:56:01.121Z,7.1
2022-11-28T01:57:01.790Z,7
2022-11-28T01:58:01.331Z,7
2022-11-28T01:59:01.917Z,7
2022-11-28T02:00:01.499Z,7
2022-11-28T02:01:01.149Z,7
2022-11-28T02:02:01.701Z,7
2022-11-28T02:03:01.316Z,7
2022-11-28T02:04:01.896Z,7
2022-11-28T02:05:01.477Z,7
2022-11-28T02:06:02.081Z,7
2022-11-28T02:07:01.662Z,7
2022-11-28T02:08:01.257Z,7
2022-11-28T02:09:01.850Z,7
2022-11-28T02:10:01.439Z,6.9
2022-11-28T02:11:02.022Z,6.9
2022-11-28T02:12:01.606Z,7
2022-11-28T02:13:07.068Z,7
2022-11-28T02:14:02.016Z,7
2022-11-28T02:15:01.423Z,7
2022-11-28T02:16:02.079Z,7
2022-11-28T02:17:01.705Z,6.9
2022-11-28T02:18:01.228Z,6.9
2022-11-28T02:19:01.822Z,6.9
2022-11-28T02:20:01.409Z,6.9
2022-11-28T02:21:01.992Z,6.8
2022-11-28T02:22:01.597Z,6.9
2022-11-28T02:23:01.181Z,6.9
2022-11-28T02:24:01.764Z,7
2022-11-28T02:25:01.349Z,7
2022-11-28T02:26:01.919Z,6.9
2022-11-28T02:27:01.531Z,7
2022-11-28T02:28:01.081Z,6.9
2022-11-28T02:29:01.670Z,7
2022-11-28T02:30:01.370Z,6.9
2022-11-28T02:31:01.879Z,7
2022-11-28T02:32:01.497Z,7
2022-11-28T02:33:02.053Z,6.9
2022-11-28T02:34:01.634Z,7
2022-11-28T02:35:01.240Z,7
2022-11-28T02:36:01.791Z,7
2022-11-28T02:37:01.375Z,7
2022-11-28T02:38:01.974Z,7
2022-11-28T02:39:01.558Z,7
2022-11-28T02:40:01.161Z,7.1
2022-11-28T02:41:01.717Z,7
2022-11-28T02:42:01.301Z,7
2022-11-28T02:43:01.873Z,7
2022-11-28T02:44:04.116Z,7
2022-11-28T02:45:02.022Z,7
2022-11-28T02:46:01.724Z,7
2022-11-28T02:47:01.354Z,7
2022-11-28T02:48:01.833Z,7.1
2022-11-28T02:49:01.449Z,7.1
2022-11-28T02:50:02.017Z,7
2022-11-28T02:51:01.641Z,7
2022-11-28T02:52:01.234Z,7.1
2022-11-28T02:53:01.817Z,7.1
2022-11-28T02:54:01.408Z,7.1
2022-11-28T02:55:01.969Z,7.1
2022-11-28T02:56:01.571Z,7.1
2022-11-28T02:57:01.126Z,7.1
2022-11-28T02:58:01.702Z,7.1
2022-11-28T02:59:01.287Z,7.1
2022-11-28T03:00:01.870Z,7.1
2022-11-28T03:01:01.502Z,7.2
2022-11-28T03:02:02.228Z,7.2
2022-11-28T03:03:01.849Z,7.2
2022-11-28T03:04:01.260Z,7.2
2022-11-28T03:05:01.839Z,7.2
2022-11-28T03:06:01.442Z,7.2
2022-11-28T03:07:02.009Z,7.2
2022-11-28T03:08:01.617Z,7.2
2022-11-28T03:09:01.206Z,7.3
2022-11-28T03:10:01.775Z,7.3
2022-11-28T03:11:01.381Z,7.2
2022-11-28T03:12:01.931Z,7.2
2022-11-28T03:13:01.515Z,7.2
2022-11-28T03:14:01.097Z,7.2
2022-11-28T03:15:01.678Z,7.2
2022-11-28T03:16:01.322Z,7.2
2022-11-28T03:17:01.869Z,7.2
2022-11-28T03:18:01.569Z,7.2
2022-11-28T03:19:02.038Z,7.3
2022-11-28T03:20:01.623Z,7.3
2022-11-28T03:21:01.232Z,7.3
2022-11-28T03:22:01.789Z,7.3
2022-11-28T03:23:01.373Z,7.2
2022-11-28T03:24:01.947Z,7.3
2022-11-28T03:25:01.531Z,7.3
2022-11-28T03:26:01.128Z,7.2
2022-11-28T03:27:01.678Z,7.2
2022-11-28T03:28:01.260Z,7.3
2022-11-28T03:29:01.844Z,7.3
2022-11-28T03:30:01.429Z,7.3
2022-11-28T03:31:02.091Z,7.3
2022-11-28T03:32:01.732Z,7.3
2022-11-28T03:33:01.231Z,7.3
2022-11-28T03:34:01.931Z,7.3
2022-11-28T03:35:01.474Z,7.3
2022-11-28T03:36:02.058Z,7.3
2022-11-28T03:37:01.663Z,7.3
2022-11-28T03:38:01.273Z,7.3
2022-11-28T03:39:01.817Z,7.3
2022-11-28T03:40:01.398Z,7.3
2022-11-28T03:41:01.983Z,7.3
2022-11-28T03:42:01.601Z,7.3
2022-11-28T03:43:01.154Z,7.3
2022-11-28T03:44:01.726Z,7.3
2022-11-28T03:45:01.309Z,7.3
2022-11-28T03:46:01.883Z,7.3
2022-11-28T03:47:01.522Z,7.3
2022-11-28T03:48:02.046Z,7.3
2022-11-28T03:49:01.633Z,7.2
2022-11-28T03:50:01.342Z,7.2
2022-11-28T03:51:01.807Z,7.2
2022-11-28T03:52:01.421Z,7.2
2022-11-28T03:53:02.005Z,7.1
2022-11-28T03:54:01.588Z,7.1
2022-11-28T03:55:01.170Z,7.1
2022-11-28T03:56:01.807Z,7.1
2022-11-28T03:57:01.410Z,7.1
2022-11-28T03:58:02.008Z,7.1
2022-11-28T03:59:01.592Z,7.1
2022-11-28T04:00:01.163Z,7.1
2022-11-28T04:01:01.775Z,7.1
2022-11-28T04:02:01.395Z,7.1
2022-11-28T04:03:02.055Z,7.1
2022-11-28T04:04:01.641Z,7.1
2022-11-28T04:05:01.214Z,7.1
2022-11-28T04:06:01.908Z,7
2022-11-28T04:07:01.434Z,7
2022-11-28T04:08:02.084Z,7
2022-11-28T04:09:01.739Z,7.1
2022-11-28T04:10:01.254Z,7.1
2022-11-28T04:11:01.835Z,7
2022-11-28T04:12:01.418Z,7.1
2022-11-28T04:13:02.017Z,7.1
2022-11-28T04:14:01.599Z,7.1
2022-11-28T04:15:01.184Z,7.1
2022-11-28T04:16:01.779Z,7.1
2022-11-28T04:17:01.412Z,7.1
2022-11-28T04:18:01.980Z,7.2
2022-11-28T04:19:01.584Z,7.1
2022-11-28T04:20:01.147Z,7.2
2022-11-28T04:21:01.724Z,7.1
2022-11-28T04:22:01.432Z,7
2022-11-28T04:23:01.892Z,7
2022-11-28T04:24:01.494Z,7
2022-11-28T04:25:02.063Z,7.1
2022-11-28T04:26:01.647Z,7.1
2022-11-28T04:27:01.228Z,7
2022-11-28T04:28:01.799Z,7
2022-11-28T04:29:01.409Z,7
2022-11-28T04:30:01.965Z,7
2022-11-28T04:31:01.558Z,7
2022-11-28T04:32:01.183Z,7
2022-11-28T04:33:01.726Z,7
2022-11-28T04:34:01.327Z,7.1
2022-11-28T04:35:01.899Z,7
2022-11-28T04:36:01.482Z,7.1
2022-11-28T04:37:05.580Z,7.1
2022-11-28T04:38:01.722Z,7.1
2022-11-28T04:39:01.344Z,7.1
2022-11-28T04:40:01.907Z,7.1
2022-11-28T04:41:01.499Z,7.1
2022-11-28T04:42:02.065Z,7.1
2022-11-28T04:43:01.647Z,7.2
2022-11-28T04:44:01.246Z,7.2
2022-11-28T04:45:01.814Z,7.2
2022-11-28T04:46:01.500Z,7.2
2022-11-28T04:47:01.997Z,7.2
2022-11-28T04:48:01.578Z,7.2
2022-11-28T04:49:01.163Z,7.1
2022-11-28T04:50:01.766Z,7.1
2022-11-28T04:51:01.347Z,7.1
2022-11-28T04:52:01.928Z,7.1
2022-11-28T04:53:01.513Z,7.2
2022-11-28T04:54:01.121Z,7.2
2022-11-28T04:55:01.688Z,7.2
2022-11-28T04:56:01.276Z,7.1
2022-11-28T04:57:01.844Z,7.2
2022-11-28T04:58:01.433Z,7.1
2022-11-28T04:59:02.003Z,7.1
2022-11-28T05:00:01.609Z,7.2
2022-11-28T05:01:01.215Z,7.2
2022-11-28T05:02:01.783Z,7.1
2022-11-28T05:03:01.381Z,7.1
2022-11-28T05:04:01.960Z,7.2
2022-11-28T05:05:01.570Z,7.2
2022-11-28T05:06:01.122Z,7.2
2022-11-28T05:07:01.706Z,7.3
2022-11-28T05:08:01.348Z,7.2
2022-11-28T05:09:01.877Z,7.2
2022-11-28T05:10:01.617Z,7.3
2022-11-28T05:11:02.063Z,7.3
2022-11-28T05:12:01.653Z,7.3
2022-11-28T05:13:01.243Z,7.3
2022-11-28T05:14:01.821Z,7.3
2022-11-28T05:15:01.422Z,7.2
2022-11-28T05:16:01.987Z,7.3
2022-11-28T05:17:01.621Z,7.3
2022-11-28T05:18:01.179Z,7.3
2022-11-28T05:19:01.749Z,7.3
2022-11-28T05:20:01.329Z,7.3
2022-11-28T05:21:01.916Z,7.3
2022-11-28T05:22:01.515Z,7.4
2022-11-28T05:23:01.084Z,7.3
2022-11-28T05:24:01.656Z,7.3
2022-11-28T05:25:01.239Z,7.3
2022-11-28T05:26:01.943Z,7.3
2022-11-28T05:27:01.491Z,7.3
2022-11-28T05:28:02.055Z,7.3
2022-11-28T05:29:01.635Z,7.3
2022-11-28T05:30:01.220Z,7.3
2022-11-28T05:31:01.805Z,7.4
2022-11-28T05:32:01.483Z,7.4
2022-11-28T05:33:01.965Z,7.4
2022-11-28T05:34:01.546Z,7.3
2022-11-28T05:35:01.128Z,7.3
2022-11-28T05:36:01.707Z,7.4
2022-11-28T05:37:01.315Z,7.4
2022-11-28T05:38:01.882Z,7.4
2022-11-28T05:39:01.499Z,7.4
2022-11-28T05:40:02.045Z,7.3
2022-11-28T05:41:01.635Z,7.4
2022-11-28T05:42:01.360Z,7.4
2022-11-28T05:43:01.827Z,7.4
2022-11-28T05:44:01.424Z,7.3
2022-11-28T05:45:02.010Z,7.3
2022-11-28T05:46:01.647Z,7.3
2022-11-28T05:47:01.162Z,7.3
2022-11-28T05:48:01.758Z,7.3
2022-11-28T05:49:01.340Z,7.3
2022-11-28T05:50:01.923Z,7.4
2022-11-28T05:51:01.537Z,7.4
2022-11-28T05:52:01.122Z,7.4
2022-11-28T05:53:01.717Z,7.4
2022-11-28T05:54:01.322Z,7.4
2022-11-28T05:55:01.875Z,7.4
2022-11-28T05:56:01.464Z,7.4
2022-11-28T05:57:02.028Z,7.4
2022-11-28T05:58:01.777Z,7.4
2022-11-28T05:59:01.273Z,7.4
2022-11-28T06:00:01.855Z,7.4
2022-11-28T06:01:01.439Z,7.5
2022-11-28T06:02:02.122Z,7.4
2022-11-28T06:03:01.981Z,7.5
2022-11-28T06:04:01.446Z,7.4
2022-11-28T06:05:16.393Z,7.5
2022-11-28T06:06:01.396Z,7.5
2022-11-28T06:07:01.993Z,7.5
2022-11-28T06:08:01.625Z,7.5
2022-11-28T06:09:01.180Z,7.5
2022-11-28T06:10:01.756Z,7.5
2022-11-28T06:11:01.349Z,7.5
2022-11-28T06:12:01.923Z,7.5
2022-11-28T06:13:01.505Z,7.5
2022-11-28T06:14:02.214Z,7.5
2022-11-28T06:15:01.825Z,7.4
2022-11-28T06:16:01.400Z,7.4
2022-11-28T06:17:01.950Z,7.4
2022-11-28T06:18:01.538Z,7.4
2022-11-28T06:19:01.110Z,7.4
2022-11-28T06:20:01.705Z,7.4
2022-11-28T06:21:01.290Z,7.4
2022-11-28T06:22:01.861Z,7.4
2022-11-28T06:23:01.443Z,7.4
2022-11-28T06:24:02.028Z,7.4
2022-11-28T06:25:01.633Z,7.4
2022-11-28T06:26:01.239Z,7.4
2022-11-28T06:27:01.795Z,7.4
2022-11-28T06:28:01.388Z,7.4
2022-11-28T06:29:01.953Z,7.4
2022-11-28T06:30:01.677Z,7.4
2022-11-28T06:31:01.130Z,7.4
2022-11-28T06:32:01.727Z,7.4
2022-11-28T06:33:01.329Z,7.4
2022-11-28T06:34:01.904Z,7.4
2022-11-28T06:35:01.507Z,7.4
2022-11-28T06:36:02.075Z,7.4
2022-11-28T06:37:01.661Z,7.4
2022-11-28T06:38:01.245Z,7.4
2022-11-28T06:39:01.829Z,7.4
2022-11-28T06:40:01.464Z,7.4
2022-11-28T06:41:02.100Z,7.4
2022-11-28T06:42:01.653Z,7.4
2022-11-28T06:43:01.211Z,7.3
2022-11-28T06:44:01.779Z,7.3
2022-11-28T06:45:01.363Z,7.4
2022-11-28T06:46:02.091Z,7.4
2022-11-28T06:47:01.622Z,7.4
2022-11-28T06:48:01.188Z,7.4
2022-11-28T06:49:01.761Z,7.4
2022-11-28T06:50:01.348Z,7.4
2022-11-28T06:51:01.939Z,7.4
2022-11-28T06:52:01.521Z,7.4
2022-11-28T06:53:01.118Z,7.4
2022-11-28T06:54:01.674Z,7.3
2022-11-28T06:55:01.259Z,7.3
2022-11-28T06:56:01.834Z,7.4
2022-11-28T06:57:01.415Z,7.3
2022-11-28T06:58:02.020Z,7.3
2022-11-28T06:59:01.604Z,7.2
2022-11-28T07:00:01.183Z,7.2
2022-11-28T07:01:01.843Z,7.2
2022-11-28T07:02:05.811Z,7.3
2022-11-28T07:03:01.975Z,7.3
2022-11-28T07:04:01.559Z,7.3
2022-11-28T07:05:01.130Z,7.3
2022-11-28T07:06:01.729Z,7.3
2022-11-28T07:07:01.343Z,7.3
2022-11-28T07:08:01.964Z,7.3
2022-11-28T07:09:01.561Z,7.4
2022-11-28T07:10:01.116Z,7.4
2022-11-28T07:11:01.693Z,7.4
2022-11-28T07:12:01.296Z,7.4
2022-11-28T07:13:05.298Z,7.4
2022-11-28T07:14:01.418Z,7.4
2022-11-28T07:15:02.003Z,7.4
2022-11-28T07:16:01.586Z,7.4
2022-11-28T07:17:01.297Z,7.4
2022-11-28T07:18:01.860Z,7.5
2022-11-28T07:19:01.411Z,7.4
2022-11-28T07:20:01.980Z,7.4
2022-11-28T07:21:01.564Z,7.4
2022-11-28T07:22:01.169Z,7.4
2022-11-28T07:23:01.714Z,7.4
2022-11-28T07:24:01.297Z,7.4
2022-11-28T07:25:01.874Z,7.4
2022-11-28T07:26:01.457Z,7.4
2022-11-28T07:27:02.063Z,7.4
2022-11-28T07:28:01.651Z,7.4
2022-11-28T07:29:01.253Z,7.4
2022-11-28T07:30:01.815Z,7.4
2022-11-28T07:31:01.399Z,7.4
2022-11-28T07:32:02.025Z,7.4
2022-11-28T07:33:01.628Z,7.4
2022-11-28T07:34:01.348Z,7.5
2022-11-28T07:35:01.797Z,7.4
2022-11-28T07:36:01.382Z,7.4
2022-11-28T07:37:01.989Z,7.5
2022-11-28T07:38:01.605Z,7.5
2022-11-28T07:39:01.157Z,7.6
2022-11-28T07:40:01.730Z,7.5
2022-11-28T07:41:01.393Z,7.4
2022-11-28T07:42:01.898Z,7.5
2022-11-28T07:43:01.480Z,7.5
2022-11-28T07:44:02.063Z,7.4
2022-11-28T07:45:01.650Z,7.5
2022-11-28T07:46:01.657Z,7.5
2022-11-28T07:47:01.423Z,7.5
2022-11-28T07:48:02.041Z,7.4
2022-11-28T07:49:01.625Z,7.5
2022-11-28T07:50:01.239Z,7.5
2022-11-28T07:51:01.785Z,7.5
2022-11-28T07:52:01.369Z,7.5
2022-11-28T07:53:06.950Z,7.5
2022-11-28T07:54:01.516Z,7.6
2022-11-28T07:55:01.122Z,7.6
2022-11-28T07:56:01.675Z,7.6
2022-11-28T07:57:16.674Z,7.6
2022-11-28T07:58:01.862Z,7.6
2022-11-28T07:59:03.256Z,7.6
2022-11-28T08:00:02.007Z,7.6
2022-11-28T08:01:01.591Z,7.6
2022-11-28T08:02:01.239Z,7.6
2022-11-28T08:03:01.746Z,7.7
2022-11-28T08:04:01.380Z,7.7
2022-11-28T08:05:02.001Z,7.7
2022-11-28T08:06:03.146Z,7.7
2022-11-28T08:07:01.848Z,7.7
2022-11-28T08:08:01.485Z,7.7
2022-11-28T08:09:02.083Z,7.8
2022-11-28T08:10:01.683Z,7.8
2022-11-28T08:11:01.266Z,7.8
2022-11-28T08:12:01.845Z,7.8
2022-11-28T08:13:01.427Z,7.8
2022-11-28T08:14:02.001Z,7.8
2022-11-28T08:15:01.599Z,7.8
2022-11-28T08:16:01.172Z,7.8
2022-11-28T08:17:01.807Z,7.8
2022-11-28T08:18:01.374Z,7.8
2022-11-28T08:19:01.955Z,7.8
2022-11-28T08:20:01.537Z,7.8
2022-11-28T08:21:01.143Z,7.7
2022-11-28T08:22:01.766Z,7.8
2022-11-28T08:23:01.351Z,7.8
2022-11-28T08:24:01.938Z,7.8
2022-11-28T08:25:01.550Z,7.8
2022-11-28T08:26:01.142Z,7.8
2022-11-28T08:27:01.710Z,7.9
2022-11-28T08:28:01.297Z,7.9
2022-11-28T08:29:01.871Z,7.8
2022-11-28T08:30:01.458Z,7.9
2022-11-28T08:31:02.143Z,8
2022-11-28T08:32:01.746Z,7.9
2022-11-28T08:33:01.288Z,7.9
2022-11-28T08:34:01.870Z,7.9
2022-11-28T08:35:01.455Z,7.9
2022-11-28T08:36:02.051Z,7.9
2022-11-28T08:37:01.633Z,7.9
2022-11-28T08:38:02.124Z,7.9
2022-11-28T08:39:23.752Z,7.9
2022-11-28T08:40:01.384Z,7.9
2022-11-28T08:41:02.037Z,8
2022-11-28T08:42:01.643Z,8
2022-11-28T08:43:01.205Z,8
2022-11-28T08:44:01.785Z,8
2022-11-28T08:45:01.370Z,8
2022-11-28T08:46:02.033Z,8
2022-11-28T08:47:01.633Z,8
2022-11-28T08:48:01.192Z,8
2022-11-28T08:49:04.137Z,7.9
2022-11-28T08:50:01.312Z,7.9
2022-11-28T08:51:01.895Z,7.8
2022-11-28T08:52:01.503Z,7.8
2022-11-28T08:53:07.581Z,7.8
2022-11-28T08:54:01.628Z,7.8
2022-11-28T08:55:01.211Z,7.8
2022-11-28T08:56:01.797Z,7.8
2022-11-28T08:57:01.417Z,7.8
2022-11-28T08:58:01.961Z,7.9
2022-11-28T08:59:01.545Z,7.9
2022-11-28T09:00:01.114Z,7.9
2022-11-28T09:01:01.749Z,7.9
2022-11-28T09:02:01.365Z,8
2022-11-28T09:03:01.953Z,8
2022-11-28T09:04:01.640Z,8
2022-11-28T09:05:01.106Z,8
2022-11-28T09:06:01.689Z,7.9
2022-11-28T09:07:01.271Z,8
2022-11-28T09:08:01.979Z,7.9
2022-11-28T09:09:01.509Z,7.9
2022-11-28T09:10:02.132Z,7.9
2022-11-28T09:11:01.728Z,7.9
2022-11-28T09:12:01.313Z,7.9
2022-11-28T09:13:01.910Z,7.9
2022-11-28T09:14:01.513Z,8
2022-11-28T09:15:02.061Z,8
2022-11-28T09:16:01.643Z,8
2022-11-28T09:17:01.313Z,8
2022-11-28T09:18:01.811Z,8
2022-11-28T09:19:01.419Z,8
2022-11-28T09:20:01.990Z,8
2022-11-28T09:21:01.599Z,8
2022-11-28T09:22:01.182Z,8
2022-11-28T09:23:01.756Z,8.1
2022-11-28T09:24:01.339Z,8.1
2022-11-28T09:25:01.940Z,8.1
2022-11-28T09:26:01.545Z,8.1
2022-11-28T09:27:01.104Z,8.1
2022-11-28T09:28:01.687Z,8
2022-11-28T09:29:01.272Z,8.1
2022-11-28T09:30:01.876Z,8.1
2022-11-28T09:31:01.504Z,8.1
2022-11-28T09:32:02.043Z,8.2
2022-11-28T09:33:01.630Z,8.2
2022-11-28T09:34:01.217Z,8.2
2022-11-28T09:35:01.819Z,8.2
2022-11-28T09:36:01.403Z,8.3
2022-11-28T09:37:04.759Z,8.3
2022-11-28T09:38:01.525Z,8.3
2022-11-28T09:39:01.106Z,8.3
2022-11-28T09:40:16.019Z,8.3
2022-11-28T09:41:01.244Z,8.3
2022-11-28T09:42:01.898Z,8.3
2022-11-28T09:43:01.484Z,8.3
2022-11-28T09:44:02.063Z,8.3
2022-11-28T09:45:01.666Z,8.3
2022-11-28T09:46:01.311Z,8.3
2022-11-28T09:47:01.821Z,8.3
2022-11-28T09:48:01.403Z,8.4
2022-11-28T09:49:01.986Z,8.5
2022-11-28T09:50:01.573Z,8.5
2022-11-28T09:51:01.172Z,8.5
2022-11-28T09:52:01.825Z,8.5
2022-11-28T09:53:01.456Z,8.5
2022-11-28T09:54:01.965Z,8.6
2022-11-28T09:55:01.545Z,8.6
2022-11-28T09:56:01.147Z,8.6
2022-11-28T09:57:01.711Z,8.6
2022-11-28T09:58:01.314Z,8.6
2022-11-28T09:59:01.881Z,8.6
2022-11-28T10:00:01.466Z,8.7
2022-11-28T10:01:02.068Z,8.7
2022-11-28T10:02:01.649Z,8.7
2022-11-28T10:03:01.231Z,8.7
2022-11-28T10:04:01.916Z,8.7
2022-11-28T10:05:01.506Z,8.7
2022-11-28T10:06:02.048Z,8.7
2022-11-28T10:07:01.650Z,8.8
2022-11-28T10:08:01.271Z,8.8
2022-11-28T10:09:01.823Z,8.7
2022-11-28T10:10:01.407Z,8.8
2022-11-28T10:11:01.997Z,8.7
2022-11-28T10:12:01.579Z,8.8
2022-11-28T10:13:01.154Z,8.7
2022-11-28T10:14:09.102Z,8.7
2022-11-28T10:15:01.274Z,8.7
2022-11-28T10:16:01.881Z,8.6
2022-11-28T10:17:01.547Z,8.8
2022-11-28T10:18:02.056Z,8.7
2022-11-28T10:19:01.638Z,8.7
2022-11-28T10:20:01.404Z,8.8
2022-11-28T10:21:01.806Z,8.7
2022-11-28T10:22:01.386Z,8.7
2022-11-28T10:23:01.988Z,8.8
2022-11-28T10:24:01.577Z,8.8
2022-11-28T10:25:01.149Z,8.8
2022-11-28T10:26:01.719Z,8.7
2022-11-28T10:27:01.301Z,8.8
2022-11-28T10:28:01.903Z,8.8
2022-11-28T10:29:01.492Z,8.8
2022-11-28T10:30:02.148Z,8.8
2022-11-28T10:31:01.822Z,8.7
2022-11-28T10:32:01.293Z,8.7
2022-11-28T10:33:01.894Z,8.7
2022-11-28T10:34:01.477Z,8.8
2022-11-28T10:35:02.050Z,8.8
2022-11-28T10:36:01.631Z,8.8
2022-11-28T10:37:01.219Z,8.8
2022-11-28T10:38:01.817Z,8.8
2022-11-28T10:39:01.418Z,9
2022-11-28T10:40:01.969Z,8.9
2022-11-28T10:41:01.551Z,8.9
2022-11-28T10:42:01.133Z,8.9
2022-11-28T10:43:01.743Z,8.9
2022-11-28T10:44:01.345Z,8.8
2022-11-28T10:45:01.912Z,8.8
2022-11-28T10:46:01.606Z,8.8
2022-11-28T10:47:02.084Z,8.8
2022-11-28T10:48:23.113Z,8.8
2022-11-28T10:49:01.225Z,8.8
2022-11-28T10:50:01.810Z,8.8
2022-11-28T10:51:01.396Z,8.8
2022-11-28T10:52:01.965Z,8.8
2022-11-28T10:53:01.544Z,8.8
2022-11-28T10:54:01.150Z,8.8
2022-11-28T10:55:01.734Z,8.8
2022-11-28T10:56:01.321Z,8.8
2022-11-28T10:57:01.891Z,8.8
2022-11-28T10:58:01.472Z,8.8
2022-11-28T10:59:02.046Z,8.8
2022-11-28T11:00:01.654Z,8.8
2022-11-28T11:01:01.300Z,8.8
2022-11-28T11:02:01.875Z,8.8
2022-11-28T11:03:01.481Z,8.8
2022-11-28T11:04:02.051Z,8.8
2022-11-28T11:05:01.712Z,8.9
2022-11-28T11:06:01.297Z,9
2022-11-28T11:07:09.005Z,9.1
2022-11-28T11:08:01.475Z,9.1
2022-11-28T11:09:02.101Z,9
2022-11-28T11:10:01.704Z,9
2022-11-28T11:11:01.284Z,9.1
2022-11-28T11:12:01.868Z,8.9
2022-11-28T11:13:01.458Z,9
2022-11-28T11:14:02.044Z,8.9
2022-11-28T11:15:01.652Z,8.9
2022-11-28T11:16:01.271Z,9
2022-11-28T11:17:01.826Z,8.9
2022-11-28T11:18:01.472Z,8.8
2022-11-28T11:19:01.998Z,8.9
2022-11-28T11:20:01.596Z,8.9
2022-11-28T11:21:01.163Z,8.9
2022-11-28T11:22:01.742Z,9
2022-11-28T11:23:01.327Z,9
2022-11-28T11:24:01.908Z,8.9
2022-11-28T11:25:01.516Z,8.9
2022-11-28T11:26:02.070Z,8.9
2022-11-28T11:27:01.656Z,8.9
2022-11-28T11:28:01.238Z,8.9
2022-11-28T11:29:01.822Z,8.8
2022-11-28T11:30:01.437Z,8.7
2022-11-28T11:31:02.041Z,8.7
2022-11-28T11:32:01.653Z,8.7
2022-11-28T11:33:01.235Z,8.6
2022-11-28T11:34:01.836Z,8.7
2022-11-28T11:35:01.441Z,8.8
2022-11-28T11:36:02.004Z,8.8
2022-11-28T11:37:01.592Z,8.8
2022-11-28T11:38:01.175Z,8.7
2022-11-28T11:39:01.757Z,8.7
2022-11-28T11:40:01.361Z,8.7
2022-11-28T11:41:01.946Z,8.7
2022-11-28T11:42:01.531Z,8.7
2022-11-28T11:43:01.103Z,8.7
2022-11-28T11:44:01.730Z,8.8
2022-11-28T11:45:01.321Z,8.7
2022-11-28T11:46:01.939Z,8.7
2022-11-28T11:47:01.540Z,8.7
2022-11-28T11:48:01.145Z,8.7
2022-11-28T11:49:01.710Z,8.7
2022-11-28T11:50:01.324Z,8.7
2022-11-28T11:51:01.866Z,8.7
2022-11-28T11:52:01.450Z,8.7
2022-11-28T11:53:02.045Z,8.7
2022-11-28T11:54:01.629Z,8.8
2022-11-28T11:55:01.212Z,8.7
2022-11-28T11:56:01.797Z,8.6
2022-11-28T11:57:25.320Z,8.7
2022-11-28T11:58:05.609Z,8.7
2022-11-28T11:59:01.474Z,8.6
2022-11-28T12:00:02.057Z,8.7
2022-11-28T12:01:01.642Z,8.7
2022-11-28T12:02:01.242Z,8.7
2022-11-28T12:03:01.898Z,8.8
2022-11-28T12:04:08.412Z,8.8
2022-11-28T12:05:02.059Z,8.8
2022-11-28T12:06:16.077Z,8.8
2022-11-28T12:07:01.252Z,8.8
2022-11-28T12:08:01.918Z,8.8
2022-11-28T12:09:01.483Z,8.9
2022-11-28T12:11:01.673Z,8.8
2022-11-28T12:12:01.260Z,8.9
2022-11-28T12:13:01.853Z,8.9
2022-11-28T12:14:01.443Z,8.9
2022-11-28T12:15:02.022Z,8.8
2022-11-28T12:16:01.637Z,8.8
2022-11-28T12:17:07.518Z,8.8
2022-11-28T12:18:01.824Z,8.8
2022-11-28T12:19:01.410Z,8.8
2022-11-28T12:20:02.010Z,8.8
2022-11-28T12:21:01.590Z,8.8
2022-11-28T12:22:01.192Z,8.7
2022-11-28T12:23:01.744Z,8.7
2022-11-28T12:24:01.338Z,8.8
2022-11-28T12:25:01.950Z,8.8
2022-11-28T12:26:01.557Z,8.8
2022-11-28T12:27:01.127Z,8.8
2022-11-28T12:28:01.705Z,8.8
2022-11-28T12:29:01.295Z,8.7
2022-11-28T12:30:01.896Z,8.8
2022-11-28T12:31:01.557Z,8.7
2022-11-28T12:32:02.054Z,8.8
2022-11-28T12:33:01.638Z,8.7
2022-11-28T12:34:01.222Z,8.7
2022-11-28T12:35:01.819Z,8.6
2022-11-28T12:36:03.090Z,8.6
2022-11-28T12:37:01.943Z,8.7
2022-11-28T12:38:17.099Z,8.7
2022-11-28T12:39:02.068Z,8.6
2022-11-28T12:40:01.666Z,8.6
2022-11-28T12:41:01.273Z,8.6
2022-11-28T12:42:01.855Z,8.6
2022-11-28T12:43:01.441Z,8.6
2022-11-28T12:44:02.035Z,8.7
2022-11-28T12:45:01.629Z,8.7
2022-11-28T12:46:01.245Z,8.7
2022-11-28T12:47:01.784Z,8.6
2022-11-28T12:48:01.367Z,8.5
2022-11-28T12:49:01.954Z,8.5
2022-11-28T12:50:01.595Z,8.5
2022-11-28T12:51:01.204Z,8.5
2022-11-28T12:52:01.753Z,8.5
2022-11-28T12:53:01.340Z,8.6
2022-11-28T12:54:01.962Z,8.5
2022-11-28T12:55:01.573Z,8.6
2022-11-28T12:56:01.177Z,8.6
2022-11-28T12:57:01.741Z,8.5
2022-11-28T12:58:05.543Z,8.6
2022-11-28T12:59:01.869Z,8.5
2022-11-28T13:00:06.958Z,8.5
2022-11-28T13:01:02.014Z,8.6
2022-11-28T13:02:05.303Z,8.5
2022-11-28T13:03:01.260Z,8.3
2022-11-28T13:04:01.771Z,8.4
2022-11-28T13:05:01.367Z,8.4
2022-11-28T13:06:01.976Z,8.4
2022-11-28T13:07:01.575Z,8.5
2022-11-28T13:08:01.251Z,8.5
2022-11-28T13:09:01.745Z,8.6
2022-11-28T13:10:01.362Z,8.5
2022-11-28T13:11:01.949Z,8.6
2022-11-28T13:12:01.533Z,8.7
2022-11-28T13:13:01.109Z,8.6
2022-11-28T13:14:01.696Z,8.6
2022-11-28T13:15:01.280Z,8.5
2022-11-28T13:16:01.911Z,8.5
2022-11-28T13:17:01.536Z,8.5
2022-11-28T13:18:02.110Z,8.4
2022-11-28T13:19:01.696Z,8.5
2022-11-28T13:20:01.279Z,8.6
2022-11-28T13:21:01.865Z,8.5
2022-11-28T13:22:01.454Z,8.5
2022-11-28T13:23:02.043Z,8.5
2022-11-28T13:24:06.800Z,8.5
2022-11-28T13:25:01.171Z,8.5
2022-11-28T13:26:01.901Z,8.4
2022-11-28T13:27:01.413Z,8.3
2022-11-28T13:28:02.018Z,8.2
2022-11-28T13:29:01.677Z,8.3
2022-11-28T13:30:01.247Z,8.3
2022-11-28T13:31:01.862Z,8.2
2022-11-28T13:32:02.285Z,8.3
2022-11-28T13:33:02.098Z,8.3
2022-11-28T13:34:01.704Z,8.3
2022-11-28T13:35:01.260Z,8.4
2022-11-28T13:36:01.866Z,8.4
2022-11-28T13:39:12.198Z,8.4
2022-11-28T13:40:02.101Z,8.4
2022-11-28T13:41:01.683Z,8.4
2022-11-28T13:42:44.166Z,8.5
2022-11-28T13:43:06.912Z,8.4
2022-11-28T13:44:01.375Z,8.3
2022-11-28T13:45:02.014Z,8.3
2022-11-28T13:46:01.646Z,8.2
2022-11-28T13:47:01.239Z,8.2
2022-11-28T13:48:01.773Z,8.2
2022-11-28T13:49:20.357Z,8.2
2022-11-28T13:50:02.211Z,8.2
2022-11-28T13:51:01.602Z,8.2
2022-11-28T13:52:01.172Z,8.2
2022-11-28T13:53:01.756Z,8.1
2022-11-28T13:54:01.361Z,8.1
2022-11-28T13:55:01.927Z,8.1
2022-11-28T13:56:01.509Z,8.1